Time;durP1;ratioP1;P1;durP2;ratioP2;P2;SDS_P1;SDS_P2;PMS_P1;PMS_P2;Temp;Humidity;BMP_temperature;BMP_pressure;BME280_temperature;BME280_humidity;BME280_pressure;Samples;Min_cycle;Max_cycle;Signal;HPM_P1;HPM_P2
2021/03/28 00:01:05;;;;;;;13.70;12.40;;;11.20;99.90;;;;;;5074693;28;20399;-73
2021/03/28 00:03:35;;;;;;;15.07;12.20;;;11.20;99.90;;;;;;5083344;28;20437;-73
2021/03/28 00:06:17;;;;;;;13.95;12.45;;;11.20;99.90;;;;;;5078194;28;20422;-73
2021/03/28 00:08:47;;;;;;;13.02;11.70;;;11.20;99.90;;;;;;5091802;28;20397;-73
2021/03/28 00:11:17;;;;;;;12.40;11.20;;;11.10;99.90;;;;;;5080002;28;20898;-73
2021/03/28 00:13:49;;;;;;;12.93;11.60;;;11.10;99.90;;;;;;5081218;28;20761;-73
2021/03/28 00:16:16;;;;;;;12.85;11.00;;;11.10;99.90;;;;;;5092389;28;20374;-73
2021/03/28 00:18:56;;;;;;;13.80;10.55;;;11.00;99.90;;;;;;5090304;28;20747;-73
2021/03/28 00:21:24;;;;;;;14.15;11.77;;;11.10;99.90;;;;;;5073090;28;20771;-73
2021/03/28 00:23:54;;;;;;;13.80;11.57;;;10.90;99.90;;;;;;5089007;28;20439;-73
2021/03/28 00:26:28;;;;;;;13.13;11.02;;;10.80;99.90;;;;;;5083526;28;20382;-73
2021/03/28 00:29:09;;;;;;;13.77;12.23;;;10.80;99.90;;;;;;5090486;28;20936;-73
2021/03/28 00:31:38;;;;;;;11.80;10.13;;;10.80;99.90;;;;;;5073869;28;20395;-73
2021/03/28 00:34:21;;;;;;;12.77;10.85;;;10.90;99.90;;;;;;5100921;28;20404;-73
2021/03/28 00:36:49;;;;;;;14.70;11.50;;;10.90;99.90;;;;;;5091247;28;20398;-73
2021/03/28 00:39:32;;;;;;;12.27;10.65;;;10.80;99.90;;;;;;5112891;28;20412;-73
2021/03/28 00:42:02;;;;;;;11.55;10.35;;;10.70;99.90;;;;;;5095844;28;20775;-73
2021/03/28 00:44:31;;;;;;;11.55;10.25;;;10.60;99.90;;;;;;5094253;28;20742;-73
2021/03/28 00:47:01;;;;;;;12.85;10.65;;;10.70;99.90;;;;;;5094565;28;20479;-73
2021/03/28 00:49:32;;;;;;;11.98;10.10;;;10.70;99.90;;;;;;5112656;28;20909;-73
2021/03/28 00:52:01;;;;;;;11.20;9.20;;;10.70;99.90;;;;;;5084341;28;20406;-73
2021/03/28 00:54:43;;;;;;;12.57;10.25;;;10.60;99.90;;;;;;5110082;28;20404;-73
2021/03/28 00:57:19;;;;;;;12.77;11.07;;;10.70;99.90;;;;;;5084957;28;20408;-73
2021/03/28 00:59:55;;;;;;;12.00;10.07;;;10.60;99.90;;;;;;5081103;28;20480;-73
2021/03/28 01:02:26;;;;;;;11.80;10.45;;;;;;;;;;5091586;22;20504;-70
2021/03/28 01:05:29;;;;;;;12.25;9.32;;;10.50;99.90;;;;;;5050338;28;20455;-70
2021/03/28 01:08:05;;;;;;;10.00;8.75;;;10.70;99.90;;;;;;4977540;28;20591;-70
2021/03/28 01:11:05;;;;;;;9.50;7.38;;;10.80;99.90;;;;;;5033645;28;20413;-70
2021/03/28 01:13:54;;;;;;;10.77;7.85;;;11.10;99.90;;;;;;5048317;28;20461;-70
2021/03/28 01:16:43;;;;;;;11.60;8.27;;;11.30;99.90;;;;;;5041559;28;20429;-70
2021/03/28 01:19:31;;;;;;;9.20;7.20;;;11.60;99.10;;;;;;5035360;28;20410;-70
2021/03/28 01:22:06;;;;;;;8.38;7.30;;;11.60;98.90;;;;;;5046426;28;20389;-71
2021/03/28 01:24:43;;;;;;;10.07;6.80;;;11.50;98.60;;;;;;5028706;28;20403;-70
2021/03/28 01:27:18;;;;;;;10.02;7.32;;;11.50;98.30;;;;;;5017436;28;20418;-70
2021/03/28 01:29:48;;;;;;;10.05;7.55;;;11.50;98.20;;;;;;5050714;28;20481;-70
2021/03/28 01:32:24;;;;;;;8.32;6.65;;;11.50;97.90;;;;;;5054121;28;20421;-70
2021/03/28 01:34:56;;;;;;;7.47;6.55;;;11.60;97.60;;;;;;5026222;28;20753;-71
2021/03/28 01:37:26;;;;;;;9.55;6.97;;;11.60;97.50;;;;;;5044458;28;20394;-70
2021/03/28 01:39:59;;;;;;;6.88;6.07;;;11.40;97.80;;;;;;5053786;28;20951;-70
2021/03/28 01:42:37;;;;;;;8.13;6.30;;;11.50;97.30;;;;;;5034808;28;20808;-70
2021/03/28 01:45:12;;;;;;;8.07;6.03;;;11.50;96.80;;;;;;5049537;28;20392;-70
2021/03/28 01:47:50;;;;;;;9.02;6.57;;;11.50;96.60;;;;;;5042259;28;20397;-70
2021/03/28 01:50:28;;;;;;;8.27;6.27;;;11.50;97.00;;;;;;5026125;28;20402;-70
2021/03/28 01:53:06;;;;;;;9.25;6.70;;;11.30;97.20;;;;;;5046225;28;20386;-70
2021/03/28 01:55:40;;;;;;;8.88;6.57;;;11.40;97.00;;;;;;5049553;28;20916;-70
2021/03/28 01:58:16;;;;;;;6.85;6.00;;;11.20;97.30;;;;;;5045905;28;20405;-70
2021/03/28 02:01:20;;;;;;;7.68;5.88;;;11.20;96.70;;;;;;5054537;28;20410;-69
2021/03/28 02:03:57;;;;;;;6.50;5.63;;;11.20;96.60;;;;;;5040016;28;20450;-69
2021/03/28 02:06:47;;;;;;;8.57;5.97;;;11.50;96.00;;;;;;5036896;28;20440;-70
2021/03/28 02:09:26;;;;;;;6.95;6.00;;;11.40;96.30;;;;;;5024970;28;20387;-70
2021/03/28 02:12:06;;;;;;;8.02;5.72;;;11.40;95.80;;;;;;5033360;28;20387;-68
2021/03/28 02:14:44;;;;;;;7.13;5.40;;;11.30;96.10;;;;;;5044233;28;20464;-70
2021/03/28 02:17:25;;;;;;;8.13;5.80;;;11.30;95.60;;;;;;5032030;28;20470;-70
2021/03/28 02:20:05;;;;;;;8.10;5.30;;;11.20;95.50;;;;;;5033419;28;20394;-70
2021/03/28 02:22:40;;;;;;;6.85;5.40;;;11.30;95.50;;;;;;5033226;28;20494;-70
2021/03/28 02:25:11;;;;;;;8.03;4.87;;;11.30;95.00;;;;;;5043818;28;20390;-70
2021/03/28 02:27:43;;;;;;;6.40;4.90;;;11.40;94.50;;;;;;5013697;28;20740;-69
2021/03/28 02:30:18;;;;;;;6.03;4.53;;;11.30;94.60;;;;;;5037267;28;20387;-64
2021/03/28 02:32:56;;;;;;;5.60;4.75;;;11.30;94.30;;;;;;5033246;28;20395;-65
2021/03/28 02:36:01;;;;;;;5.38;4.35;;;11.20;94.50;;;;;;5036404;28;20496;-64
2021/03/28 02:39:01;;;;;;;6.80;5.00;;;11.10;94.50;;;;;;4969265;28;20485;-64
2021/03/28 02:41:39;;;;;;;7.65;4.57;;;11.30;94.10;;;;;;5028321;28;20407;-64
2021/03/28 02:44:18;;;;;;;7.18;4.20;;;11.30;93.80;;;;;;5031689;28;20379;-64
2021/03/28 02:46:52;;;;;;;5.65;4.65;;;11.30;93.90;;;;;;5009846;28;20405;-64
2021/03/28 02:49:44;;;;;;;5.28;4.18;;;11.20;93.70;;;;;;5048940;28;20872;-64
2021/03/28 02:52:31;;;;;;;5.63;3.95;;;11.10;93.90;;;;;;5029298;28;20554;-64
2021/03/28 02:55:27;;;;;;;5.97;4.20;;;11.30;93.30;;;;;;5035207;28;20417;-64
2021/03/28 02:58:17;;;;;;;5.83;3.83;;;11.50;92.90;;;;;;5018872;28;20407;-64
2021/03/28 03:01:16;;;;;;;4.57;4.03;;;11.50;93.00;;;;;;5031643;28;20390;-64
2021/03/28 03:04:11;;;;;;;7.27;4.57;;;11.40;92.90;;;;;;5021501;28;20435;-64
2021/03/28 03:06:58;;;;;;;5.33;4.43;;;11.40;92.70;;;;;;5018790;28;20617;-64
2021/03/28 03:09:35;;;;;;;6.22;4.00;;;11.30;92.80;;;;;;5013816;28;20395;-64
2021/03/28 03:12:26;;;;;;;5.15;3.70;;;11.30;92.70;;;;;;5032133;28;20387;-64
2021/03/28 03:15:16;;;;;;;4.65;4.00;;;11.50;92.10;;;;;;5025011;28;20801;-64
2021/03/28 03:18:31;;;;;;;6.38;4.22;;;11.30;92.50;;;;;;5031019;28;20397;-63
2021/03/28 03:21:23;;;;;;;4.55;4.15;;;11.30;92.70;;;;;;4951692;28;20408;-64
2021/03/28 03:24:36;;;;;;;5.32;4.07;;;11.20;92.60;;;;;;5005507;28;20401;-65
2021/03/28 03:27:27;;;;;;;4.90;3.85;;;11.10;92.70;;;;;;4964010;28;20411;-63
2021/03/28 03:30:31;;;;;;;6.78;3.88;;;11.30;92.70;;;;;;5030817;28;20464;-63
2021/03/28 03:33:32;;;;;;;5.55;3.90;;;11.20;92.40;;;;;;4962646;28;20443;-64
2021/03/28 03:36:12;;;;;;;5.80;4.03;;;11.20;92.40;;;;;;5027755;28;20473;-64
2021/03/28 03:39:00;;;;;;;6.10;4.03;;;11.20;92.20;;;;;;5032204;28;20383;-64
2021/03/28 03:41:44;;;;;;;4.32;3.78;;;11.10;92.40;;;;;;5041721;28;20398;-63
2021/03/28 03:44:18;;;;;;;4.82;3.88;;;11.20;92.50;;;;;;5027064;28;20414;-67
2021/03/28 03:47:01;;;;;;;5.00;3.88;;;11.10;92.20;;;;;;5034981;28;20742;-63
2021/03/28 03:49:48;;;;;;;4.75;4.00;;;11.10;92.40;;;;;;5018732;28;20416;-63
2021/03/28 03:52:29;;;;;;;4.03;3.63;;;11.10;92.60;;;;;;5043392;28;20394;-63
2021/03/28 03:55:01;;;;;;;5.80;4.28;;;11.20;92.70;;;;;;5036579;28;20448;-63
2021/03/28 03:57:39;;;;;;;5.05;3.95;;;11.10;93.00;;;;;;5034752;28;20437;-63
2021/03/28 04:00:14;;;;;;;5.97;3.90;;;11.30;92.50;;;;;;5034597;28;20391;-63
2021/03/28 04:02:49;;;;;;;4.10;3.50;;;11.30;91.80;;;;;;5016236;28;20415;-63
2021/03/28 04:05:39;;;;;;;4.47;3.87;;;11.40;90.70;;;;;;5033891;28;20391;-63
2021/03/28 04:08:44;;;;;;;4.75;3.85;;;11.40;90.90;;;;;;5029450;28;20477;-63
2021/03/28 04:11:27;;;;;;;5.22;3.40;;;11.30;91.10;;;;;;5027639;28;20414;-63
2021/03/28 04:14:16;;;;;;;4.78;4.10;;;11.30;91.20;;;;;;5047981;28;22202;-63
2021/03/28 04:17:03;;;;;;;6.00;3.38;;;11.40;90.80;;;;;;5034819;28;20445;-63
2021/03/28 04:19:33;;;;;;;5.03;3.67;;;11.40;90.70;;;;;;5035876;28;20387;-63
2021/03/28 04:22:34;;;;;;;4.63;3.47;;;11.40;90.90;;;;;;5027920;28;20489;-63
2021/03/28 04:25:16;;;;;;;5.00;3.67;;;11.30;90.70;;;;;;5025543;28;20933;-63
2021/03/28 04:27:58;;;;;;;4.07;3.40;;;11.10;90.90;;;;;;5015918;28;20457;-63
2021/03/28 04:30:38;;;;;;;4.43;3.60;;;11.10;91.10;;;;;;5028179;28;20426;-64
2021/03/28 04:33:14;;;;;;;4.60;3.70;;;11.00;91.10;;;;;;5027364;28;20487;-63
2021/03/28 04:36:11;;;;;;;5.45;3.90;;;11.00;91.30;;;;;;5032408;28;20510;-64
2021/03/28 04:38:53;;;;;;;4.78;3.72;;;11.10;91.20;;;;;;5030265;28;20398;-63
2021/03/28 04:41:52;;;;;;;4.38;3.65;;;11.00;91.40;;;;;;5033454;28;20387;-64
2021/03/28 04:44:50;;;;;;;4.70;3.40;;;11.10;91.20;;;;;;5022135;28;20883;-63
2021/03/28 04:47:48;;;;;;;3.58;3.10;;;11.00;91.50;;;;;;5018335;28;20427;-63
2021/03/28 04:50:46;;;;;;;4.30;3.30;;;11.00;91.30;;;;;;5029068;28;20410;-63
2021/03/28 04:53:42;;;;;;;3.97;3.40;;;11.10;90.80;;;;;;5037212;28;20389;-64
2021/03/28 04:56:33;;;;;;;3.63;3.17;;;11.10;90.80;;;;;;5038999;28;20391;-63
2021/03/28 04:59:44;;;;;;;5.70;3.80;;;11.20;90.80;;;;;;5009506;28;20397;-63
2021/03/28 05:02:24;;;;;;;6.38;4.05;;;11.10;90.80;;;;;;5033095;28;20452;-63
2021/03/28 05:05:28;;;;;;;5.05;3.40;;;11.10;90.20;;;;;;5021363;28;20399;-63
2021/03/28 05:08:25;;;;;;;4.07;3.67;;;11.20;90.10;;;;;;5044064;28;20386;-63
2021/03/28 05:11:23;;;;;;;3.97;3.53;;;11.00;90.50;;;;;;5010521;28;20461;-63
2021/03/28 05:14:04;;;;;;;5.80;3.70;;;;;;;;;;5032821;28;20414;-63
2021/03/28 05:16:57;;;;;;;5.05;3.30;;;;;;;;;;5012665;28;20411;-63
2021/03/28 05:19:54;;;;;;;4.93;3.50;;;;;;;;;;5032462;28;20493;-63
2021/03/28 05:22:34;;;;;;;5.23;3.77;;;;;;;;;;5016443;28;20939;-63
2021/03/28 05:25:15;;;;;;;4.43;3.67;;;;;;;;;;5033842;28;20399;-63
2021/03/28 05:27:49;;;;;;;6.50;3.22;;;;;;;;;;4999060;28;20399;-63
2021/03/28 05:30:33;;;;;;;4.88;3.40;;;;;;;;;;5032592;28;20391;-64
2021/03/28 05:33:04;;;;;;;5.40;3.25;;;;;;;;;;5041163;28;20399;-63
2021/03/28 05:35:45;;;;;;;5.10;3.40;;;;;;;;;;5033807;28;20423;-63
2021/03/28 05:38:23;;;;;;;4.30;3.03;;;;;;;;;;5025033;28;20430;-64
2021/03/28 05:40:55;;;;;;;4.72;3.63;;;;;;;;;;5032038;28;20399;-64
2021/03/28 05:43:40;;;;;;;4.50;3.00;;;;;;;;;;5032864;28;20747;-63
2021/03/28 05:46:36;;;;;;;4.37;2.90;;;10.90;90.60;;;;;;5043942;28;20387;-63
2021/03/28 05:49:15;;;;;;;5.13;3.20;;;10.60;90.10;;;;;;4999504;28;20553;-63
2021/03/28 05:51:49;;;;;;;4.07;3.30;;;;;;;;;;5032378;28;20482;-63
2021/03/28 05:54:33;;;;;;;3.92;2.70;;;;;;;;;;5014518;28;20419;-63
2021/03/28 05:57:21;;;;;;;4.38;3.20;;;;;;;;;;5027218;28;20405;-63
2021/03/28 05:59:54;;;;;;;3.47;3.10;;;;;;;;;;5030433;28;20391;-63
2021/03/28 06:02:38;;;;;;;5.13;3.55;;;;;;;;;;5030165;28;20407;-63
2021/03/28 06:05:55;;;;;;;4.75;3.33;;;10.40;89.20;;;;;;5030490;28;20490;-64
2021/03/28 06:08:40;;;;;;;4.97;3.45;;;10.30;90.10;;;;;;5030059;28;20403;-64
2021/03/28 06:11:40;;;;;;;3.97;3.22;;;10.30;89.80;;;;;;5030782;28;20867;-64
2021/03/28 06:14:34;;;;;;;4.28;3.33;;;10.30;90.00;;;;;;5031274;28;20419;-64
2021/03/28 06:17:24;;;;;;;4.22;3.03;;;10.40;89.50;;;;;;5020441;28;20396;-64
2021/03/28 06:20:35;;;;;;;4.63;3.25;;;10.50;88.20;;;;;;5014777;28;20395;-64
2021/03/28 06:23:38;;;;;;;3.90;2.80;;;10.70;87.90;;;;;;4994656;28;20905;-65
2021/03/28 06:26:43;;;;;;;4.80;2.80;;;10.60;87.80;;;;;;5030107;28;20371;-64
2021/03/28 06:29:57;;;;;;;4.97;3.60;;;10.60;87.80;;;;;;5002626;28;20893;-64
2021/03/28 06:32:51;;;;;;;5.53;3.80;;;10.70;87.30;;;;;;5027105;28;20500;-64
2021/03/28 06:35:56;;;;;;;5.38;3.00;;;10.70;87.80;;;;;;5007534;28;20426;-64
2021/03/28 06:38:51;;;;;;;6.13;3.65;;;10.80;88.00;;;;;;5027646;28;20390;-64
2021/03/28 06:41:48;;;;;;;6.32;3.75;;;10.70;88.10;;;;;;5029088;28;20403;-64
2021/03/28 06:44:36;;;;;;;6.32;3.63;;;10.70;88.00;;;;;;5030030;28;20858;-63
2021/03/28 06:47:27;;;;;;;4.55;3.80;;;10.60;88.10;;;;;;5029177;28;20453;-63
2021/03/28 06:50:34;;;;;;;4.07;3.37;;;10.70;88.00;;;;;;5029459;28;20391;-63
2021/03/28 06:53:22;;;;;;;5.38;3.30;;;10.70;87.60;;;;;;5013501;28;20413;-63
2021/03/28 06:56:16;;;;;;;4.78;2.90;;;10.80;87.20;;;;;;5028637;28;20411;-63
2021/03/28 06:59:06;;;;;;;4.18;3.20;;;11.00;84.90;;;;;;5004575;28;20395;-63
2021/03/28 07:02:16;;;;;;;4.23;3.10;;;10.90;86.20;;;;;;5030869;28;20934;-63
2021/03/28 07:05:06;;;;;;;4.55;2.80;;;10.90;85.70;;;;;;4992821;28;20843;-63
2021/03/28 07:08:18;;;;;;;4.53;2.95;;;10.70;86.50;;;;;;5024067;28;20403;-63
2021/03/28 07:11:02;;;;;;;4.80;3.63;;;10.80;85.80;;;;;;5036632;28;20427;-63
2021/03/28 07:13:52;;;;;;;5.00;3.20;;;10.80;86.60;;;;;;5031808;28;20419;-62
2021/03/28 07:16:39;;;;;;;5.60;3.33;;;11.10;84.80;;;;;;5010002;28;20395;-63
2021/03/28 07:19:37;;;;;;;4.65;2.88;;;11.00;85.60;;;;;;5035128;28;20399;-64
2021/03/28 07:22:44;;;;;;;4.30;2.97;;;11.00;86.40;;;;;;5019910;28;20406;-63
2021/03/28 07:25:47;;;;;;;5.38;3.15;;;11.10;85.60;;;;;;4980885;28;20476;-63
2021/03/28 07:28:49;;;;;;;5.68;2.65;;;11.20;85.80;;;;;;5020706;28;20411;-63
2021/03/28 07:31:56;;;;;;;4.72;3.22;;;11.30;85.50;;;;;;5035248;28;20395;-64
2021/03/28 07:35:07;;;;;;;3.30;2.78;;;11.40;84.70;;;;;;5025484;28;20411;-63
2021/03/28 07:38:12;;;;;;;4.38;2.97;;;11.50;85.10;;;;;;5030376;28;20437;-63
2021/03/28 07:41:07;;;;;;;3.70;2.83;;;11.60;84.10;;;;;;5016696;28;20755;-63
2021/03/28 07:44:05;;;;;;;4.97;2.92;;;11.70;84.00;;;;;;5034451;28;20482;-63
2021/03/28 07:46:57;;;;;;;3.03;2.45;;;11.80;85.40;;;;;;5027672;28;20494;-63
2021/03/28 07:49:42;;;;;;;4.53;2.70;;;;;;;;;;5047061;28;20797;-63
2021/03/28 07:52:29;;;;;;;4.57;2.88;;;;;;;;;;5028651;28;20387;-63
2021/03/28 07:55:05;;;;;;;3.72;3.05;;;;;;;;;;5036821;28;20423;-64
2021/03/28 07:57:58;;;;;;;3.07;2.60;;;;;;;;;;5034399;28;20481;-63
2021/03/28 08:00:37;;;;;;;4.57;3.20;;;;;;;;;;5035718;28;20391;-63
2021/03/28 08:03:45;;;;;;;3.17;2.90;;;12.00;84.00;;;;;;5017251;28;20437;-63
2021/03/28 08:06:37;;;;;;;3.58;2.60;;;13.30;79.00;;;;;;5034569;28;20398;-63
2021/03/28 08:09:21;;;;;;;5.20;3.00;;;13.60;76.80;;;;;;5011545;28;20476;-63
2021/03/28 08:12:01;;;;;;;4.40;2.80;;;13.70;80.80;;;;;;5036326;28;20391;-63
2021/03/28 08:14:53;;;;;;;4.20;2.50;;;14.00;77.40;;;;;;5033943;28;20411;-63
2021/03/28 08:17:33;;;;;;;5.00;3.47;;;;;;;;;;5035211;28;20481;-63
2021/03/28 08:20:18;;;;;;;4.85;3.35;;;;;;;;;;5025607;28;20407;-64
2021/03/28 08:22:53;;;;;;;4.57;3.30;;;;;;;;;;5077162;22;21456;-69
2021/03/28 08:25:45;;;;;;;4.47;3.10;;;14.10;75.90;;;;;;5053319;28;20389;-69
2021/03/28 08:28:35;;;;;;;6.40;4.57;;;;;;;;;;5052593;28;20864;-70
2021/03/28 08:31:15;;;;;;;5.70;5.10;;;14.60;77.60;;;;;;5023211;28;20390;-69
2021/03/28 08:34:26;;;;;;;6.60;5.28;;;15.00;84.30;;;;;;5052789;28;20899;-68
2021/03/28 08:36:58;;;;;;;6.45;5.60;;;;;;;;;;5045009;28;20397;-69
2021/03/28 08:39:39;;;;;;;7.28;5.63;;;;;;;;;;5069351;28;20748;-69
2021/03/28 08:42:26;;;;;;;5.57;5.03;;;;;;;;;;5051320;28;20401;-70
2021/03/28 08:45:11;;;;;;;5.85;4.43;;;;;;;;;;5045862;28;20567;-69
2021/03/28 08:47:58;;;;;;;9.73;5.45;;;;;;;;;;5052769;28;20880;-70
2021/03/28 08:50:30;;;;;;;8.63;5.90;;;;;;;;;;5051348;28;20417;-69
2021/03/28 08:53:11;;;;;;;6.75;5.95;;;;;;;;;;5053759;28;20401;-69
2021/03/28 08:55:56;;;;;;;8.43;6.47;;;;;;;;;;5049719;28;20432;-69
2021/03/28 08:58:24;;;;;;;8.77;7.43;;;;;;;;;;5054162;28;20855;-70
2021/03/28 09:00:55;;;;;;;10.68;7.70;;;;;;;;;;5053761;28;20425;-69
2021/03/28 09:03:48;;;;;;;10.07;9.07;;;;;;;;;;5054190;28;20393;-69
2021/03/28 09:06:17;;;;;;;11.70;9.48;;;;;;;;;;5019275;28;20405;-69
2021/03/28 09:08:50;;;;;;;11.27;9.52;;;;;;;;;;5068488;28;20409;-70
2021/03/28 09:11:25;;;;;;;10.60;9.43;;;;;;;;;;5052985;28;20752;-69
2021/03/28 09:13:56;;;;;;;12.87;9.60;;;;;;;;;;5062052;28;20475;-69
2021/03/28 09:16:28;;;;;;;11.40;9.90;;;;;;;;;;5052687;28;20417;-69
2021/03/28 09:19:04;;;;;;;11.90;10.53;;;;;;;;;;5050605;28;20427;-69
2021/03/28 09:21:41;;;;;;;11.07;9.88;;;;;;;;;;5050365;28;20393;-69
2021/03/28 09:24:14;;;;;;;12.77;10.63;;;;;;;;;;5035293;28;20426;-69
2021/03/28 09:26:44;;;;;;;12.57;9.82;;;;;;;;;;5031605;28;20425;-69
2021/03/28 09:29:34;;;;;;;14.65;11.43;;;;;;;;;;5030061;28;20394;-69
2021/03/28 09:32:25;;;;;;;11.13;9.73;;;15.00;85.20;;;;;;5039927;28;20902;-69
2021/03/28 09:34:59;;;;;;;14.32;11.25;;;;;;;;;;5032973;28;20438;-69
2021/03/28 09:37:29;;;;;;;12.27;10.82;;;;;;;;;;5033551;28;20408;-68
2021/03/28 09:40:03;;;;;;;13.40;10.90;;;;;;;;;;5019573;28;20878;-69
2021/03/28 09:42:44;;;;;;;13.68;11.27;;;;;;;;;;5032935;28;20449;-69
2021/03/28 09:45:31;;;;;;;12.37;10.87;;;;;;;;;;5022547;28;20505;-70
2021/03/28 09:48:04;;;;;;;10.98;9.88;;;;;;;;;;5031376;28;20399;-69
2021/03/28 09:50:41;;;;;;;13.73;10.70;;;16.60;91.30;;;;;;5032410;28;20419;-69
2021/03/28 09:53:22;;;;;;;12.70;10.27;;;16.40;91.50;;;;;;5047846;28;20413;-69
2021/03/28 09:56:05;;;;;;;11.68;9.75;;;16.50;91.50;;;;;;5032134;28;20419;-70
2021/03/28 09:58:46;;;;;;;12.15;9.73;;;;;;;;;;5034785;28;20391;-69
2021/03/28 10:01:30;;;;;;;11.43;9.13;;;;;;;;;;5032995;28;20412;-69
2021/03/28 10:03:58;;;;;;;10.77;8.48;;;;;;;;;;5028482;28;20395;-69
2021/03/28 10:06:26;;;;;;;9.38;8.48;;;;;;;;;;5032162;28;20407;-70
2021/03/28 10:08:59;;;;;;;8.23;6.97;;;;;;;;;;5038443;28;20728;-69
2021/03/28 10:11:32;;;;;;;9.82;7.05;;;;;;;;;;5030620;28;20394;-70
2021/03/28 10:14:16;;;;;;;7.55;6.85;;;;;;;;;;5029555;28;20403;-69
2021/03/28 10:16:46;;;;;;;7.30;6.60;;;;;;;;;;5029640;28;20399;-68
2021/03/28 10:19:23;;;;;;;10.73;7.00;;;;;;;;;;5038970;28;20425;-69
2021/03/28 10:22:00;;;;;;;8.60;6.55;;;;;;;;;;5038985;28;20405;-69
2021/03/28 10:24:40;;;;;;;9.07;7.50;;;;;;;;;;5031743;28;20415;-69
2021/03/28 10:27:18;;;;;;;8.80;6.80;;;;;;;;;;5026794;28;20525;-69
2021/03/28 10:29:51;;;;;;;8.98;6.82;;;;;;;;;;5030802;28;20407;-69
2021/03/28 10:32:28;;;;;;;9.13;7.50;;;16.30;90.30;;;;;;5048682;28;20403;-68
2021/03/28 10:35:26;;;;;;;8.57;7.13;;;17.70;83.70;;;;;;5023124;28;20461;-69
2021/03/28 10:38:28;;;;;;;9.30;6.65;;;17.70;83.90;;;;;;5042887;28;20752;-69
2021/03/28 10:41:04;;;;;;;9.10;6.68;;;17.70;83.30;;;;;;5028603;28;20493;-69
2021/03/28 10:43:49;;;;;;;8.73;6.82;;;;;;;;;;5046606;28;20422;-69
2021/03/28 10:46:28;;;;;;;8.45;7.25;;;;;;;;;;5024137;28;20399;-69
2021/03/28 10:49:17;;;;;;;9.33;7.17;;;;;;;;;;5030677;28;20387;-69
2021/03/28 10:51:57;;;;;;;8.15;7.35;;;;;;;;;;5034437;28;20395;-69
2021/03/28 10:54:41;;;;;;;8.77;7.05;;;;;;;;;;5030685;28;20932;-69
2021/03/28 10:57:50;;;;;;;7.70;6.90;;;;;;;;;;5038281;28;20399;-69
2021/03/28 11:00:37;;;;;;;9.82;8.10;;;;;;;;;;5032746;28;20397;-69
2021/03/28 11:03:20;;;;;;;10.68;7.38;;;;;;;;;;5044346;28;20407;-70
2021/03/28 11:06:13;;;;;;;7.63;6.88;;;;;;;;;;5033689;28;20754;-69
2021/03/28 11:08:53;;;;;;;7.88;6.93;;;;;;;;;;5036298;28;20798;-70
2021/03/28 11:11:37;;;;;;;8.80;7.50;;;18.20;81.40;;;;;;5029691;28;20527;-69
2021/03/28 11:14:41;;;;;;;7.90;7.13;;;18.20;81.20;;;;;;5051677;28;20489;-69
2021/03/28 11:17:23;;;;;;;8.82;6.78;;;17.90;84.70;;;;;;5004204;28;20423;-69
2021/03/28 11:20:18;;;;;;;7.30;6.50;;;18.30;82.50;;;;;;5041827;28;20387;-70
2021/03/28 11:22:52;;;;;;;8.05;6.20;;;18.70;81.40;;;;;;5033187;28;20472;-69
2021/03/28 11:25:22;;;;;;;7.97;6.97;;;18.70;82.00;;;;;;5028996;28;20432;-69
2021/03/28 11:28:29;;;;;;;8.90;6.72;;;18.00;82.70;;;;;;5043487;28;20497;-68
2021/03/28 11:31:10;;;;;;;9.45;6.40;;;18.10;92.60;;;;;;5043654;28;20910;-68
2021/03/28 11:33:39;;;;;;;8.50;6.00;;;18.00;88.90;;;;;;5035340;28;20391;-68
2021/03/28 11:36:14;;;;;;;8.27;6.35;;;18.20;86.30;;;;;;5034844;28;20419;-68
2021/03/28 11:38:44;;;;;;;7.57;6.10;;;18.50;85.30;;;;;;5034539;28;20391;-68
2021/03/28 11:41:32;;;;;;;8.23;6.28;;;18.80;87.30;;;;;;5043773;28;20901;-68
2021/03/28 11:44:10;;;;;;;6.88;6.18;;;18.70;82.10;;;;;;5026390;28;20395;-68
2021/03/28 11:46:47;;;;;;;5.65;5.15;;;18.10;81.90;;;;;;5028800;28;20837;-69
2021/03/28 11:49:17;;;;;;;6.38;5.47;;;18.30;81.90;;;;;;5031653;28;20406;-69
2021/03/28 11:52:18;;;;;;;6.13;5.53;;;18.70;82.30;;;;;;5032729;28;20399;-69
2021/03/28 11:55:14;;;;;;;7.55;5.40;;;18.60;80.20;;;;;;5031957;28;20469;-68
2021/03/28 11:57:41;;;;;;;8.40;5.70;;;19.20;79.20;;;;;;5030235;28;20472;-69
2021/03/28 12:00:22;;;;;;;6.38;5.75;;;;;;;;;;5034965;28;20390;-68
2021/03/28 12:03:03;;;;;;;6.55;4.97;;;;;;;;;;5025255;28;20397;-69
2021/03/28 12:05:37;;;;;;;6.78;5.35;;;;;;;;;;5032996;28;20438;-69
2021/03/28 12:08:10;;;;;;;6.75;4.82;;;;;;;;;;5031064;28;20407;-69
2021/03/28 12:10:36;;;;;;;5.90;5.35;;;;;;;;;;5034731;28;20453;-69
2021/03/28 12:13:17;;;;;;;6.07;5.40;;;;;;;;;;5030848;28;20465;-69
2021/03/28 12:15:57;;;;;;;6.93;5.30;;;;;;;;;;5025079;28;20757;-69
2021/03/28 12:18:34;;;;;;;5.90;4.70;;;;;;;;;;5047758;28;20397;-69
2021/03/28 12:21:19;;;;;;;5.90;4.38;;;;;;;;;;5021225;28;20432;-68
2021/03/28 12:23:57;;;;;;;6.87;5.00;;;;;;;;;;5022946;28;20910;-68
2021/03/28 12:26:25;;;;;;;5.90;4.78;;;;;;;;;;5019203;28;20420;-67
2021/03/28 12:28:55;;;;;;;6.93;4.85;;;;;;;;;;5021792;28;21732;-68
2021/03/28 12:31:32;;;;;;;6.40;4.55;;;;;;;;;;5036613;28;20416;-68
2021/03/28 12:34:25;;;;;;;5.20;4.70;;;21.00;68.80;;;;;;5019923;28;20419;-69
2021/03/28 12:36:54;;;;;;;6.30;5.72;;;;;;;;;;5029042;28;21386;-68
2021/03/28 12:39:23;;;;;;;6.53;5.35;;;;;;;;;;5021884;28;20403;-68
2021/03/28 12:42:09;;;;;;;6.75;5.97;;;;;;;;;;5021227;28;20904;-67
2021/03/28 12:44:35;;;;;;;5.82;5.10;;;;;;;;;;5028731;28;20742;-68
2021/03/28 12:47:15;;;;;;;5.80;5.28;;;;;;;;;;5036743;28;20413;-68
2021/03/28 12:49:49;;;;;;;6.97;5.75;;;;;;;;;;5020158;28;20449;-68
2021/03/28 12:52:19;;;;;;;6.13;5.53;;;;;;;;;;5020677;28;20400;-68
2021/03/28 12:55:04;;;;;;;7.55;5.18;;;;;;;;;;5021759;28;20421;-68
2021/03/28 12:57:35;;;;;;;6.03;4.55;;;;;;;;;;5021756;28;20402;-68
2021/03/28 13:02:37;;;;;;;5.80;4.88;;;;;;;;;;5208009;22;20511;-68
2021/03/28 13:05:05;;;;;;;6.40;5.30;;;;;;;;;;5055684;28;20459;-66
2021/03/28 13:07:39;;;;;;;9.73;5.20;;;20.70;68.20;;;;;;5064855;28;20920;-66
2021/03/28 13:10:14;;;;;;;5.47;4.60;;;19.60;70.20;;;;;;5064608;28;20386;-66
2021/03/28 13:12:43;;;;;;;5.55;4.82;;;20.20;71.20;;;;;;5065809;28;20818;-67
2021/03/28 13:17:45;;;;;;;6.57;4.88;;;;;;;;;;5057695;22;20521;-78
2021/03/28 13:20:13;;;;;;;6.90;5.53;;;;;;;;;;5019493;28;20403;-78
2021/03/28 13:25:21;;;;;;;5.75;4.55;;;;;;;;;;5038951;28;20441;-65
2021/03/28 13:27:50;;;;;;;5.03;4.43;;;;;;;;;;5037735;28;20415;-67
2021/03/28 13:30:22;;;;;;;6.65;4.68;;;;;;;;;;5042902;28;20411;-69
2021/03/28 13:32:49;;;;;;;8.13;4.83;;;;;;;;;;5040115;28;20495;-67
2021/03/28 13:35:27;;;;;;;6.35;4.93;;;;;;;;;;5022810;28;20512;-66
2021/03/28 13:37:54;;;;;;;6.22;4.68;;;;;;;;;;5037110;28;20858;-66
2021/03/28 13:40:24;;;;;;;4.97;4.25;;;;;;;;;;5037634;28;20395;-66
2021/03/28 13:42:54;;;;;;;5.07;3.88;;;;;;;;;;5035358;28;20407;-67
2021/03/28 13:45:32;;;;;;;6.05;4.60;;;21.20;68.00;;;;;;5025604;28;20765;-67
2021/03/28 13:48:00;;;;;;;6.25;4.18;;;;;;;;;;5299809;22;20491;-78
2021/03/28 13:50:36;;;;;;;7.82;4.93;;;;;;;;;;5044309;28;20455;-78
2021/03/28 13:53:04;;;;;;;6.18;3.65;;;;;;;;;;5359671;22;20437;-69
2021/03/28 13:55:33;;;;;;;5.78;4.20;;;;;;;;;;5058489;28;20502;-68
2021/03/28 13:58:09;;;;;;;5.20;3.97;;;;;;;;;;5061282;28;20867;-64
2021/03/28 14:00:36;;;;;;;5.75;4.05;;;;;;;;;;5059132;28;20401;-65
2021/03/28 14:03:14;;;;;;;4.90;4.40;;;;;;;;;;5060411;28;20400;-63
2021/03/28 14:05:41;;;;;;;8.00;4.68;;;;;;;;;;5060678;28;20392;-64
2021/03/28 14:08:12;;;;;;;5.30;4.07;;;;;;;;;;5060921;28;20401;-64
2021/03/28 14:10:50;;;;;;;5.93;3.88;;;;;;;;;;5059022;28;20394;-64
2021/03/28 14:13:19;;;;;;;5.03;4.25;;;;;;;;;;5058253;28;20413;-64
2021/03/28 14:15:47;;;;;;;5.43;3.90;;;;;;;;;;5060339;28;20452;-64
2021/03/28 14:18:34;;;;;;;4.07;3.67;;;;;;;;;;5060647;28;20420;-64
2021/03/28 14:21:12;;;;;;;5.25;3.63;;;;;;;;;;5054391;28;20904;-65
2021/03/28 14:23:44;;;;;;;5.40;3.70;;;;;;;;;;5049461;28;20494;-64
2021/03/28 14:26:26;;;;;;;5.13;3.53;;;21.60;67.80;;;;;;5051932;28;20452;-63
2021/03/28 14:28:53;;;;;;;5.30;3.87;;;21.70;64.70;;;;;;5062007;28;20435;-64
2021/03/28 14:31:36;;;;;;;5.88;3.47;;;21.80;63.10;;;;;;5065595;28;20929;-65
2021/03/28 14:34:43;;;;;;;6.10;3.47;;;21.70;64.10;;;;;;5045118;28;20400;-64
2021/03/28 14:37:21;;;;;;;5.65;4.00;;;;;;;;;;5032546;28;21332;-64
2021/03/28 14:40:02;;;;;;;4.22;3.83;;;;;;;;;;5051721;28;20392;-64
2021/03/28 14:42:30;;;;;;;5.55;3.60;;;;;;;;;;5058931;28;20766;-64
2021/03/28 14:45:01;;;;;;;6.13;3.63;;;;;;;;;;5067811;28;20392;-64
2021/03/28 14:47:48;;;;;;;5.35;4.03;;;20.80;65.30;;;;;;5070450;28;20392;-64
2021/03/28 14:50:22;;;;;;;7.32;3.83;;;19.50;68.30;;;;;;5068532;28;20809;-65
2021/03/28 14:52:56;;;;;;;4.40;3.63;;;19.90;67.20;;;;;;5062785;28;20423;-65
2021/03/28 14:55:33;;;;;;;5.78;3.78;;;20.00;66.30;;;;;;5057721;28;20413;-65